Dakin Peak, Santa Catalina Island Weather observations

Data are for 10 minute period ending at time listed.
 Day   Time   Solar   Ave.   Ave.  Ave.  Vector    Max.   Stn.    Total
  of    of     Rad.   Air    Rel.  Wind   Wind     Wind   Baro.  Precip.
Year   Day            Temp.  Hum.  Speed  Dir.     Gust   Pres.         
2014   (PST)   W/m2    F      %     mph   deg.      mph    mb.     in.  
------------------------------------------------------------------------
 260   11:10  662.0    90   42.8     6    109.3    13.7    999.0   0.00  
 260   11:20  667.0    88   47.7     6    106.2    10.8    999.0   0.00  
 260   11:30  671.0    88   48.4     5    118.9     9.0    999.0   0.00  
 260   11:40  675.0    88   46.1     4    126.2     8.4    999.0   0.00  
 260   11:50  676.0    90   42.3     4    155.5     6.6    999.0   0.00  
 260   12:00  676.0    90   42.7     4    153.2     9.6    999.0   0.00  
 260   12:10  674.0    88   45.8     4    133.4     9.0    999.0   0.00  
 260   12:20  669.0    87   49.6     5    104.8     7.8    999.0   0.00  
 260   12:30  663.0    87   50.3     5    100.3     9.0    999.0   0.00  
 260   12:40  655.0    87   50.3     5     93.5     8.4    999.0   0.00  
 260   12:50  647.0    87   49.2     5    102.9     7.8    999.0   0.00  
 260   13:00  641.0    87   46.2     5    141.5    10.8    999.0   0.00  
 260   13:10  633.0    89   29.1    10    253.6    14.3    999.0   0.00  
 260   13:20  623.0    88   31.8    10    252.5    14.9    999.0   0.00  
 260   13:30  609.0    87   35.3    11    250.9    15.5    999.0   0.00  
 260   13:40  595.0    86   37.1    12    252.8    17.3    999.0   0.00  
 260   13:50  580.0    86   37.0    14    256.2    17.9    999.0   0.00  
 260   14:00  563.0    86   36.5    14    256.4    19.7    999.0   0.00  
 260   14:10  547.0    86   35.2    14    256.5    19.1    999.0   0.00  
 260   14:20  527.0    86   34.5    14    251.4    17.9    999.0   0.00  
 260   14:30  506.0    85   35.3    16    253.5    23.3    999.0   0.00  
 260   14:40  485.0    85   35.1    17    259.1    23.3    999.0   0.00  
 260   14:50  462.0    85   36.5    15    256.1    22.1    999.0   0.00  
 260   15:00  440.0    85   38.2    15    254.4    19.1    999.0   0.00  
 260   15:10  417.0    84   39.5    15    259.0    19.1    999.0   0.00  
 260   15:20  394.0    84   39.8    13    267.9    19.1    999.0   0.00  
 260   15:30  370.0    85   35.4    13    261.3    20.9    999.0   0.00  
 260   15:40  344.0    85   33.4    14    273.9    21.5    999.0   0.00  
 260   15:50  317.0    83   38.1    17    255.1    24.5    999.0   0.00  
 260   16:00  289.0    80   39.9    22    249.7    30.4    999.0   0.00  
 260   16:10  261.0    79   43.2    25    249.1    32.8    999.0   0.00  
 260   16:20  232.0    78   46.0    29    252.1    38.8    999.0   0.00  
 260   16:30  204.0    78   47.8    32    252.2    39.9    999.0   0.00  
 260   16:40  173.0    77   51.0    35    254.6    42.3    999.0   0.00  
 260   16:50  147.0    77   52.2    37    255.7    45.3    999.0   0.00  
 260   17:00  122.0    78   52.0    40    257.2    50.7    999.0   0.00  
 260   17:10   98.0    77   53.5    40    258.8    47.1    999.0   0.00  
 260   17:20   74.0    77   53.7    40    259.0    51.3    999.0   0.00  
 260   17:30   47.0    76   56.3    41    257.9    50.1    999.0   0.00  
 260   17:40   28.0    75   58.2    40    258.7    48.3    999.0   0.00  
 260   17:50   13.0    75   59.1    41    259.6    48.9    999.0   0.00  
 260   18:00    5.0    74   59.4    41    258.1    52.5    999.0   0.00  
 260   18:10    1.0    74   60.5    41    257.7    50.7    999.0   0.00  
 260   18:20    0.0    73   62.7    39    258.0    45.9    999.0   0.00  
 260   18:30    0.0    72   64.3    38    257.8    44.7    999.0   0.00  
 260   18:40    0.0    73   63.4    36    257.8    42.9    999.0   0.00  
 260   18:50    0.0    73   62.0    36    257.3    40.5    999.0   0.00  
 260   19:00    0.0    73   59.9    33    256.4    39.9    999.0   0.00  
 260   19:10    0.0    73   58.9    29    255.2    36.4    999.0   0.00  
 260   19:20    0.0    73   57.3    22    255.8    30.4    999.0   0.00  
 260   19:30    0.0    73   57.5    15    255.2    22.1    999.0   0.00  
 260   19:40    0.0    73   55.7    15    256.6    22.7    999.0   0.00  
 260   19:50    0.0    74   54.5    16    253.7    20.9    999.0   0.00  
 260   20:00    0.0    72   56.8    17    256.2    27.4    999.0   0.00  
 260   20:10    0.0    72   56.5    22    257.4    29.2    999.0   0.00  
 260   20:20    0.0    72   56.9    23    256.1    29.8    999.0   0.00  
 260   20:30    0.0    71   58.6    24    257.3    30.4    999.0   0.00  
 260   20:40    0.0    70   60.4    24    260.0    29.2    999.0   0.00  
 260   20:50    0.0    69   62.5    21    264.9    26.2    999.0   0.00  
 260   21:00    0.0    69   62.2    23    262.1    27.4    999.0   0.00  
 260   21:10    0.0    69   61.5    23    260.7    27.4    999.0   0.00  
 260   21:20    0.0    69   62.6    20    259.0    23.3    999.0   0.00  
 260   21:30    0.0    69   61.7    18    257.5    22.1    999.0   0.00  
 260   21:40    0.0    69   61.4    20    258.4    23.9    999.0   0.00  
 260   21:50    0.0    70   58.5    22    256.4    26.8    999.0   0.00  
 260   22:00    0.0    70   56.0    20    256.7    23.9    999.0   0.00  
 260   22:10    0.0    70   57.5    18    264.0    23.3    999.0   0.00  
 260   22:20    0.0    69   61.1    14    272.6    18.5    999.0   0.00  
 260   22:30    0.0    69   62.9    12    259.3    19.7    999.0   0.00  
 260   22:40    0.0    69   63.9    15    258.2    17.9    999.0   0.00  
 260   22:50    0.0    69   64.9    16    253.7    19.1    999.0   0.00  
 260   23:00    0.0    67   71.8    17    252.8    19.7    999.0   0.00  
 260   23:10    0.0    66   72.8    16    254.8    20.3    999.0   0.00  
 260   23:20    0.0    68   65.4    17    248.3    22.7    999.0   0.00  
 260   23:30    0.0    68   61.4    18    250.1    20.3    999.0   0.00  
 260   23:40    0.0    68   64.0    16    252.2    20.3    999.0   0.00  
 260   23:50    0.0    67   67.0    14    255.2    17.3    999.0   0.00  
 261    0:00    0.0    67   67.6    12    258.7    14.9    999.0   0.00  
 261    0:10    0.0    65   75.8    11    265.0    12.5    999.0   0.00  
 261    0:20    0.0    64   80.8     8    271.4    10.8    999.0   0.00  
 261    0:30    0.0    65   78.0     6    267.1     7.2    999.0   0.00  
 261    0:40    0.0    64   78.8     8    261.6    11.9    999.0   0.00  
 261    0:50    0.0    63   83.9    11    259.7    13.1    999.0   0.00  
 261    1:00    0.0    64   83.1     9    257.1    11.9    999.0   0.00  
 261    1:10    0.0    64   81.7     8    249.4    10.8    999.0   0.00  
 261    1:20    0.0    64   82.1     9    249.9    13.1    999.0   0.00  
 261    1:30    0.0    63   87.1    14    254.4    17.3    999.0   0.00  
 261    1:40    0.0    63   87.0    10    251.1    13.7    999.0   0.00  
 261    1:50    0.0    63   86.6     8    255.5    10.8    999.0   0.00  
 261    2:00    0.0    62   88.2    10    254.3    14.3    999.0   0.00  
 261    2:10    0.0    63   88.4    12    247.3    14.3    999.0   0.00  
 261    2:20    0.0    63   88.1    12    251.3    14.3    999.0   0.00  
 261    2:30    0.0    63   89.5    10    258.4    13.7    999.0   0.00  
 261    2:40    0.0    63   88.2    10    256.7    12.5    999.0   0.00  
 261    2:50    0.0    62   89.6    10    256.1    12.5    999.0   0.00  
 261    3:00    0.0    62   90.5    11    260.0    13.1    999.0   0.00  
 261    3:10    0.0    62   91.6    10    260.6    12.5    999.0   0.00  
 261    3:20    0.0    62   91.9     9    260.4    11.9    999.0   0.00  
 261    3:30    0.0    62   92.4    10    258.3    13.1    999.0   0.00  
 261    3:40    0.0    63   87.1     6    235.4    10.2    999.0   0.00  
 261    3:50    0.0    67   68.0     5    227.9     6.0    999.0   0.00  
 261    4:00    0.0    63   85.0     9    252.5    13.1    999.0   0.00  
 261    4:10    0.0    63   88.1     9    256.0    12.5    999.0   0.00  
 261    4:20    0.0    63   89.8    11    261.9    14.9    999.0   0.00  
 261    4:30    0.0    62   91.2    10    263.3    13.7    999.0   0.00  
 261    4:40    0.0    62   92.3    10    263.7    13.1    999.0   0.00  
 261    4:50    0.0    62   92.2    11    257.0    13.7    999.0   0.00  
 261    5:00    0.0    62   92.0    12    255.2    15.5    999.0   0.00  
 261    5:10    0.0    62   93.3    14    255.6    16.7    999.0   0.00  
 261    5:20    0.0    62   94.4    14    257.5    16.1    999.0   0.00  
 261    5:30    0.0    62   94.9    11    263.0    15.5    999.0   0.00  
 261    5:40    2.0    63   93.6    10    277.4    11.9    999.0   0.00  
 261    5:50    8.0    65   86.7     8    293.5    10.8    999.0   0.00  
 261    6:00   22.0    66   83.4     5    274.0     8.4    999.0   0.00  
 261    6:10   45.0    64   90.5     6    254.1     8.4    999.0   0.00  
 261    6:20   88.0    63   92.7     7    253.8    10.8    999.0   0.00  
 261    6:30  120.0    63   93.6     8    253.9    10.8    999.0   0.00  
 261    6:40  135.0    63   93.8     7    253.0     9.6    999.0   0.00  
 261    6:50  163.0    64   94.1     8    253.3    10.8    999.0   0.00  
 261    7:00  190.0    64   94.2     8    249.1    11.9    999.0   0.00  
 261    7:10  243.0    64   93.8     8    245.8    11.3    999.0   0.00  
 261    7:20  206.0    65   94.2     8    251.6    11.3    999.0   0.00  
 261    7:30  237.0    65   94.6     8    258.0    11.9    999.0   0.00  
 261    7:40  271.0    65   94.6     8    255.8    11.3    999.0   0.00  
 261    7:50  385.0    65   94.1     8    262.5    10.8    999.0   0.00  
 261    8:00  482.0    65   94.0     6    261.7     9.6    999.0   0.00  
 261    8:10  449.0    67   92.5     3    220.8     7.2    999.0   0.00  
 261    8:20  526.0    67   90.8     4    244.3     9.0    999.0   0.00  
 261    8:30  456.0    67   90.5     8    248.3    10.8    999.0   0.00  
 261    8:40  493.0    67   91.0     6    243.4     9.0    999.0   0.00  
 261    8:50  487.0    68   88.2     6    251.0     9.6    999.0   0.00  
 261    9:00  458.0    67   88.8     6    236.1    10.2    999.0   0.00  
 261    9:10  522.0    68   85.6     6    243.7    10.2    999.0   0.00  
 261    9:20  580.0    68   86.8     7    252.0    13.1    999.0   0.00  
 261    9:30  596.0    69   85.1     9    245.5    13.7    999.0   0.00  
 261    9:40  651.0    68   86.8     8    254.3    12.5    999.0   0.00  
 261    9:50  651.0    68   86.5     9    253.9    14.3    999.0   0.00  
 261   10:00  574.0    69   84.8     6    246.7    11.3    999.0   0.00  
 261   10:10  751.0    70   83.3     5    246.4     9.6    999.0   0.00  
 261   10:20  542.0    69   84.4     8    247.5    13.7    999.0   0.00  
 261   10:30  542.0    68   88.9     8    256.6    13.1    999.0   0.00  
 261   10:40  532.0    68   87.8     9    245.6    15.5    999.0   0.00  
 261   10:50  565.0    68   86.9    10    253.6    14.3    999.0   0.00  
 261   11:00  465.0    68   87.3     9    254.1    14.9    999.0   0.00  

Return to Dakin Peak graphs page.


Western Regional Climate Center,wrcc@dri.edu